Terminal Aerodrome Forecast
Issued by NWS Austin/San Antonio, TX

Home | Current Version | Previous Version | Text Only | Print | Product List | Glossary On
Versions: 1 2 3 4 5 6 7 8 9 10 11 12 13 14 15 16
000
FTUS44 KEWX 251720
TAFSAT
TAF
KSAT 251720Z 2518/2624 17007KT P6SM FEW070 FEW250
     FM252000 36012KT P6SM VCTS BKN035CB
      TEMPO 2521/2522 TSRA OVC030CB
     FM252300 36013KT P6SM VCTS BKN035CB
     FM260200 36009KT P6SM OVC030
     FM260600 01007KT P6SM BKN035=

USA.gov is the U.S. government's official web portal to all federal, state and local government web resources and services.